sensor_id;sensor_type;location;lat;lon;timestamp;temperature;humidity
63299;DHT22;54535;52.138;5.398;2022-11-15T00:00:17;8.60;99.90
63299;DHT22;54535;52.138;5.398;2022-11-15T00:03:02;8.60;99.90
63299;DHT22;54535;52.138;5.398;2022-11-15T00:05:47;8.60;99.90
63299;DHT22;54535;52.138;5.398;2022-11-15T00:08:33;8.60;99.90
63299;DHT22;54535;52.138;5.398;2022-11-15T00:11:18;8.60;99.90
63299;DHT22;54535;52.138;5.398;2022-11-15T00:14:03;8.50;99.90
63299;DHT22;54535;52.138;5.398;2022-11-15T00:16:48;8.50;99.90
63299;DHT22;54535;52.138;5.398;2022-11-15T00:19:33;8.50;99.90
63299;DHT22;54535;52.138;5.398;2022-11-15T00:22:18;8.50;99.90
63299;DHT22;54535;52.138;5.398;2022-11-15T00:25:03;8.50;99.90
63299;DHT22;54535;52.138;5.398;2022-11-15T00:27:49;8.40;99.90
63299;DHT22;54535;52.138;5.398;2022-11-15T00:30:34;8.30;99.90
63299;DHT22;54535;52.138;5.398;2022-11-15T00:33:20;8.40;99.90
63299;DHT22;54535;52.138;5.398;2022-11-15T00:36:06;8.40;99.90
63299;DHT22;54535;52.138;5.398;2022-11-15T00:38:51;8.50;99.90
63299;DHT22;54535;52.138;5.398;2022-11-15T00:41:36;8.60;99.90
63299;DHT22;54535;52.138;5.398;2022-11-15T00:44:21;8.60;99.90
63299;DHT22;54535;52.138;5.398;2022-11-15T00:47:07;8.60;99.90
63299;DHT22;54535;52.138;5.398;2022-11-15T00:49:52;8.60;99.90
63299;DHT22;54535;52.138;5.398;2022-11-15T00:52:37;8.70;99.90
63299;DHT22;54535;52.138;5.398;2022-11-15T00:55:22;8.70;99.90
63299;DHT22;54535;52.138;5.398;2022-11-15T00:58:07;8.80;99.90
63299;DHT22;54535;52.138;5.398;2022-11-15T01:00:53;8.70;99.90
63299;DHT22;54535;52.138;5.398;2022-11-15T01:03:40;8.80;99.90
63299;DHT22;54535;52.138;5.398;2022-11-15T01:06:25;8.90;99.90
63299;DHT22;54535;52.138;5.398;2022-11-15T01:09:10;8.90;99.90
63299;DHT22;54535;52.138;5.398;2022-11-15T01:11:55;8.90;99.90
63299;DHT22;54535;52.138;5.398;2022-11-15T01:14:41;9.00;99.90
63299;DHT22;54535;52.138;5.398;2022-11-15T01:17:26;9.00;99.90
63299;DHT22;54535;52.138;5.398;2022-11-15T01:20:11;9.00;99.90
63299;DHT22;54535;52.138;5.398;2022-11-15T01:22:56;8.90;99.90
63299;DHT22;54535;52.138;5.398;2022-11-15T01:25:41;8.90;99.90
63299;DHT22;54535;52.138;5.398;2022-11-15T01:28:34;8.90;99.90
63299;DHT22;54535;52.138;5.398;2022-11-15T01:31:20;8.90;99.90
63299;DHT22;54535;52.138;5.398;2022-11-15T01:34:05;8.90;99.90
63299;DHT22;54535;52.138;5.398;2022-11-15T01:36:50;8.90;99.90
63299;DHT22;54535;52.138;5.398;2022-11-15T01:39:36;9.00;99.90
63299;DHT22;54535;52.138;5.398;2022-11-15T01:42:21;9.00;99.90
63299;DHT22;54535;52.138;5.398;2022-11-15T01:45:07;9.00;99.90
63299;DHT22;54535;52.138;5.398;2022-11-15T01:47:54;9.00;99.90
63299;DHT22;54535;52.138;5.398;2022-11-15T01:50:40;9.00;99.90
63299;DHT22;54535;52.138;5.398;2022-11-15T01:53:25;9.00;99.90
63299;DHT22;54535;52.138;5.398;2022-11-15T01:56:13;9.00;99.90
63299;DHT22;54535;52.138;5.398;2022-11-15T01:59:01;9.10;99.90
63299;DHT22;54535;52.138;5.398;2022-11-15T02:01:47;9.20;99.90
63299;DHT22;54535;52.138;5.398;2022-11-15T02:04:33;9.10;99.90
63299;DHT22;54535;52.138;5.398;2022-11-15T02:07:21;9.20;99.90
63299;DHT22;54535;52.138;5.398;2022-11-15T02:10:08;9.20;99.90
63299;DHT22;54535;52.138;5.398;2022-11-15T02:12:53;9.10;99.90
63299;DHT22;54535;52.138;5.398;2022-11-15T02:15:50;9.20;99.90
63299;DHT22;54535;52.138;5.398;2022-11-15T02:18:38;9.30;99.90
63299;DHT22;54535;52.138;5.398;2022-11-15T02:21:28;9.30;99.90
63299;DHT22;54535;52.138;5.398;2022-11-15T02:24:20;9.30;99.90
63299;DHT22;54535;52.138;5.398;2022-11-15T02:27:28;9.30;99.90
63299;DHT22;54535;52.138;5.398;2022-11-15T02:33:14;9.40;99.90
63299;DHT22;54535;52.138;5.398;2022-11-15T02:36:00;9.40;99.90
63299;DHT22;54535;52.138;5.398;2022-11-15T02:38:59;9.50;99.90
63299;DHT22;54535;52.138;5.398;2022-11-15T02:42:01;9.60;99.90
63299;DHT22;54535;52.138;5.398;2022-11-15T02:44:48;9.60;99.90
63299;DHT22;54535;52.138;5.398;2022-11-15T02:47:34;9.70;99.90
63299;DHT22;54535;52.138;5.398;2022-11-15T02:50:24;9.60;99.90
63299;DHT22;54535;52.138;5.398;2022-11-15T02:53:10;9.70;99.90
63299;DHT22;54535;52.138;5.398;2022-11-15T02:55:55;9.80;99.90
63299;DHT22;54535;52.138;5.398;2022-11-15T03:01:52;9.90;99.90
63299;DHT22;54535;52.138;5.398;2022-11-15T03:10:36;10.00;99.90
63299;DHT22;54535;52.138;5.398;2022-11-15T03:13:39;10.00;99.90
63299;DHT22;54535;52.138;5.398;2022-11-15T03:19:40;10.10;99.90
63299;DHT22;54535;52.138;5.398;2022-11-15T03:22:27;10.10;99.90
63299;DHT22;54535;52.138;5.398;2022-11-15T03:25:16;10.10;99.90
63299;DHT22;54535;52.138;5.398;2022-11-15T03:28:02;10.10;99.90
63299;DHT22;54535;52.138;5.398;2022-11-15T03:30:49;10.10;99.90
63299;DHT22;54535;52.138;5.398;2022-11-15T03:33:35;10.10;99.90
63299;DHT22;54535;52.138;5.398;2022-11-15T03:36:21;10.20;99.90
63299;DHT22;54535;52.138;5.398;2022-11-15T03:39:07;10.20;99.90
63299;DHT22;54535;52.138;5.398;2022-11-15T03:44:52;10.20;99.90
63299;DHT22;54535;52.138;5.398;2022-11-15T03:47:41;10.20;99.90
63299;DHT22;54535;52.138;5.398;2022-11-15T03:50:28;10.30;99.90
63299;DHT22;54535;52.138;5.398;2022-11-15T03:53:14;10.30;99.90
63299;DHT22;54535;52.138;5.398;2022-11-15T03:55:59;10.40;99.90
63299;DHT22;54535;52.138;5.398;2022-11-15T03:58:44;10.40;99.90
63299;DHT22;54535;52.138;5.398;2022-11-15T04:01:29;10.40;99.90
63299;DHT22;54535;52.138;5.398;2022-11-15T04:04:15;10.40;99.90
63299;DHT22;54535;52.138;5.398;2022-11-15T04:07:00;10.50;99.90
63299;DHT22;54535;52.138;5.398;2022-11-15T04:09:45;10.50;99.90
63299;DHT22;54535;52.138;5.398;2022-11-15T04:12:48;10.50;99.90
63299;DHT22;54535;52.138;5.398;2022-11-15T04:15:34;10.60;99.90
63299;DHT22;54535;52.138;5.398;2022-11-15T04:18:19;10.60;99.90
63299;DHT22;54535;52.138;5.398;2022-11-15T04:21:04;10.70;99.90
63299;DHT22;54535;52.138;5.398;2022-11-15T04:24:08;10.70;99.90
63299;DHT22;54535;52.138;5.398;2022-11-15T04:26:59;10.70;99.90
63299;DHT22;54535;52.138;5.398;2022-11-15T04:29:45;10.80;99.90
63299;DHT22;54535;52.138;5.398;2022-11-15T04:32:30;10.80;99.90
63299;DHT22;54535;52.138;5.398;2022-11-15T04:35:15;10.80;99.90
63299;DHT22;54535;52.138;5.398;2022-11-15T04:38:00;10.80;99.90
63299;DHT22;54535;52.138;5.398;2022-11-15T04:40:46;10.90;99.90
63299;DHT22;54535;52.138;5.398;2022-11-15T04:43:31;10.90;99.90
63299;DHT22;54535;52.138;5.398;2022-11-15T04:46:17;10.90;99.90
63299;DHT22;54535;52.138;5.398;2022-11-15T04:49:02;10.90;99.90
63299;DHT22;54535;52.138;5.398;2022-11-15T04:51:47;10.90;99.90
63299;DHT22;54535;52.138;5.398;2022-11-15T04:54:33;11.00;99.90
63299;DHT22;54535;52.138;5.398;2022-11-15T04:57:18;11.00;99.90
63299;DHT22;54535;52.138;5.398;2022-11-15T05:00:04;11.00;99.90
63299;DHT22;54535;52.138;5.398;2022-11-15T05:02:49;11.00;99.90
63299;DHT22;54535;52.138;5.398;2022-11-15T05:05:53;11.00;99.90
63299;DHT22;54535;52.138;5.398;2022-11-15T05:08:38;11.00;99.90
63299;DHT22;54535;52.138;5.398;2022-11-15T05:11:23;11.00;99.90
63299;DHT22;54535;52.138;5.398;2022-11-15T05:14:09;11.00;99.90
63299;DHT22;54535;52.138;5.398;2022-11-15T05:16:54;11.10;99.90
63299;DHT22;54535;52.138;5.398;2022-11-15T05:19:39;11.10;99.90
63299;DHT22;54535;52.138;5.398;2022-11-15T05:22:24;11.10;99.90
63299;DHT22;54535;52.138;5.398;2022-11-15T05:25:09;11.10;99.90
63299;DHT22;54535;52.138;5.398;2022-11-15T05:27:55;11.10;99.90
63299;DHT22;54535;52.138;5.398;2022-11-15T05:30:40;11.10;99.90
63299;DHT22;54535;52.138;5.398;2022-11-15T05:33:25;11.10;99.90
63299;DHT22;54535;52.138;5.398;2022-11-15T05:39:14;11.20;99.90
63299;DHT22;54535;52.138;5.398;2022-11-15T05:42:00;11.20;99.90
63299;DHT22;54535;52.138;5.398;2022-11-15T05:44:47;11.20;99.90
63299;DHT22;54535;52.138;5.398;2022-11-15T05:47:33;11.30;99.90
63299;DHT22;54535;52.138;5.398;2022-11-15T05:50:19;11.30;99.90
63299;DHT22;54535;52.138;5.398;2022-11-15T05:53:04;11.30;99.90
63299;DHT22;54535;52.138;5.398;2022-11-15T05:55:50;11.30;99.90
63299;DHT22;54535;52.138;5.398;2022-11-15T05:58:36;11.30;99.90
63299;DHT22;54535;52.138;5.398;2022-11-15T06:01:22;11.40;99.90
63299;DHT22;54535;52.138;5.398;2022-11-15T06:04:07;11.40;99.90
63299;DHT22;54535;52.138;5.398;2022-11-15T06:06:53;11.40;99.90
63299;DHT22;54535;52.138;5.398;2022-11-15T06:09:38;11.40;99.90
63299;DHT22;54535;52.138;5.398;2022-11-15T06:12:24;11.40;99.90
63299;DHT22;54535;52.138;5.398;2022-11-15T06:15:09;11.40;99.90
63299;DHT22;54535;52.138;5.398;2022-11-15T06:17:57;11.40;99.90
63299;DHT22;54535;52.138;5.398;2022-11-15T06:20:43;11.50;99.90
63299;DHT22;54535;52.138;5.398;2022-11-15T06:23:28;11.50;99.90
63299;DHT22;54535;52.138;5.398;2022-11-15T06:26:14;11.60;99.90
63299;DHT22;54535;52.138;5.398;2022-11-15T06:28:59;11.60;99.90
63299;DHT22;54535;52.138;5.398;2022-11-15T06:31:44;11.60;99.90
63299;DHT22;54535;52.138;5.398;2022-11-15T06:34:29;11.60;99.90
63299;DHT22;54535;52.138;5.398;2022-11-15T06:37:14;11.70;99.90
63299;DHT22;54535;52.138;5.398;2022-11-15T06:39:59;11.70;99.90
63299;DHT22;54535;52.138;5.398;2022-11-15T06:42:44;11.70;99.90
63299;DHT22;54535;52.138;5.398;2022-11-15T06:45:30;11.70;99.90
63299;DHT22;54535;52.138;5.398;2022-11-15T06:48:15;11.70;99.90
63299;DHT22;54535;52.138;5.398;2022-11-15T06:51:00;11.70;99.90
63299;DHT22;54535;52.138;5.398;2022-11-15T06:53:46;11.70;99.90
63299;DHT22;54535;52.138;5.398;2022-11-15T06:56:31;11.70;99.90
63299;DHT22;54535;52.138;5.398;2022-11-15T06:59:16;11.70;99.90
63299;DHT22;54535;52.138;5.398;2022-11-15T07:02:01;11.70;99.90
63299;DHT22;54535;52.138;5.398;2022-11-15T07:04:46;11.70;99.90
63299;DHT22;54535;52.138;5.398;2022-11-15T07:07:31;11.70;99.90
63299;DHT22;54535;52.138;5.398;2022-11-15T07:10:16;11.70;99.90
63299;DHT22;54535;52.138;5.398;2022-11-15T07:13:02;11.70;99.90
63299;DHT22;54535;52.138;5.398;2022-11-15T07:15:47;11.70;99.90
63299;DHT22;54535;52.138;5.398;2022-11-15T07:18:36;11.70;99.90
63299;DHT22;54535;52.138;5.398;2022-11-15T07:21:22;11.70;99.90
63299;DHT22;54535;52.138;5.398;2022-11-15T07:24:11;11.70;99.90
63299;DHT22;54535;52.138;5.398;2022-11-15T07:26:56;11.70;99.90
63299;DHT22;54535;52.138;5.398;2022-11-15T07:29:42;11.70;99.90
63299;DHT22;54535;52.138;5.398;2022-11-15T07:32:27;11.70;99.90
63299;DHT22;54535;52.138;5.398;2022-11-15T07:35:12;11.70;99.90
63299;DHT22;54535;52.138;5.398;2022-11-15T07:37:58;11.70;99.90
63299;DHT22;54535;52.138;5.398;2022-11-15T07:40:44;11.70;99.90
63299;DHT22;54535;52.138;5.398;2022-11-15T07:43:29;11.70;99.90
63299;DHT22;54535;52.138;5.398;2022-11-15T07:46:15;11.70;99.90
63299;DHT22;54535;52.138;5.398;2022-11-15T07:49:00;11.70;99.90
63299;DHT22;54535;52.138;5.398;2022-11-15T07:51:45;11.70;99.90
63299;DHT22;54535;52.138;5.398;2022-11-15T07:54:30;11.80;99.90
63299;DHT22;54535;52.138;5.398;2022-11-15T07:57:15;11.80;99.90
63299;DHT22;54535;52.138;5.398;2022-11-15T08:00:00;11.80;99.90
63299;DHT22;54535;52.138;5.398;2022-11-15T08:02:45;11.80;99.90
63299;DHT22;54535;52.138;5.398;2022-11-15T08:05:31;11.80;99.90
63299;DHT22;54535;52.138;5.398;2022-11-15T08:08:17;11.80;99.90
63299;DHT22;54535;52.138;5.398;2022-11-15T08:11:02;11.80;99.90
63299;DHT22;54535;52.138;5.398;2022-11-15T08:13:48;11.80;99.90
63299;DHT22;54535;52.138;5.398;2022-11-15T08:16:33;11.80;99.90
63299;DHT22;54535;52.138;5.398;2022-11-15T08:19:18;11.90;99.90
63299;DHT22;54535;52.138;5.398;2022-11-15T08:22:03;11.90;99.90
63299;DHT22;54535;52.138;5.398;2022-11-15T08:24:48;11.90;99.90
63299;DHT22;54535;52.138;5.398;2022-11-15T08:27:34;11.90;99.90
63299;DHT22;54535;52.138;5.398;2022-11-15T08:30:19;11.90;99.90
63299;DHT22;54535;52.138;5.398;2022-11-15T08:33:04;12.00;99.90
63299;DHT22;54535;52.138;5.398;2022-11-15T08:35:49;12.00;99.90
63299;DHT22;54535;52.138;5.398;2022-11-15T08:38:34;12.00;99.90
63299;DHT22;54535;52.138;5.398;2022-11-15T08:41:24;12.00;99.90
63299;DHT22;54535;52.138;5.398;2022-11-15T08:44:10;12.00;99.90
63299;DHT22;54535;52.138;5.398;2022-11-15T08:46:55;12.00;99.90
63299;DHT22;54535;52.138;5.398;2022-11-15T08:49:40;12.00;99.90
63299;DHT22;54535;52.138;5.398;2022-11-15T08:52:25;12.10;99.90
63299;DHT22;54535;52.138;5.398;2022-11-15T08:55:11;12.10;99.90
63299;DHT22;54535;52.138;5.398;2022-11-15T08:57:57;12.20;99.90
63299;DHT22;54535;52.138;5.398;2022-11-15T09:00:42;12.20;99.90
63299;DHT22;54535;52.138;5.398;2022-11-15T09:03:27;12.20;99.90
63299;DHT22;54535;52.138;5.398;2022-11-15T09:06:13;12.20;99.90
63299;DHT22;54535;52.138;5.398;2022-11-15T09:08:59;12.30;99.90
63299;DHT22;54535;52.138;5.398;2022-11-15T09:11:45;12.30;99.90
63299;DHT22;54535;52.138;5.398;2022-11-15T09:14:30;12.40;99.90
63299;DHT22;54535;52.138;5.398;2022-11-15T09:17:15;12.30;99.90
63299;DHT22;54535;52.138;5.398;2022-11-15T09:20:08;12.40;99.90
63299;DHT22;54535;52.138;5.398;2022-11-15T09:22:54;12.60;99.90
63299;DHT22;54535;52.138;5.398;2022-11-15T09:25:39;12.60;99.90
63299;DHT22;54535;52.138;5.398;2022-11-15T09:28:24;12.70;99.90
63299;DHT22;54535;52.138;5.398;2022-11-15T09:31:09;12.70;99.90
63299;DHT22;54535;52.138;5.398;2022-11-15T09:33:54;12.70;99.90
63299;DHT22;54535;52.138;5.398;2022-11-15T09:36:40;12.70;99.90
63299;DHT22;54535;52.138;5.398;2022-11-15T09:39:25;12.70;99.90
63299;DHT22;54535;52.138;5.398;2022-11-15T09:42:25;12.70;99.90
63299;DHT22;54535;52.138;5.398;2022-11-15T09:45:17;12.80;99.90
63299;DHT22;54535;52.138;5.398;2022-11-15T09:48:27;12.70;99.90
63299;DHT22;54535;52.138;5.398;2022-11-15T09:53:49;12.60;99.90
63299;DHT22;54535;52.138;5.398;2022-11-15T09:56:39;12.60;99.90
63299;DHT22;54535;52.138;5.398;2022-11-15T09:59:22;12.70;99.90
63299;DHT22;54535;52.138;5.398;2022-11-15T10:01:58;12.70;99.90
63299;DHT22;54535;52.138;5.398;2022-11-15T10:04:26;12.70;99.90
63299;DHT22;54535;52.138;5.398;2022-11-15T10:09:31;12.80;99.90
63299;DHT22;54535;52.138;5.398;2022-11-15T10:11:59;12.80;99.90
63299;DHT22;54535;52.138;5.398;2022-11-15T10:14:27;12.90;99.90
63299;DHT22;54535;52.138;5.398;2022-11-15T10:22:27;13.00;99.90
63299;DHT22;54535;52.138;5.398;2022-11-15T10:27:29;13.00;99.90
63299;DHT22;54535;52.138;5.398;2022-11-15T10:29:56;13.10;99.90
63299;DHT22;54535;52.138;5.398;2022-11-15T10:32:23;13.00;99.90
63299;DHT22;54535;52.138;5.398;2022-11-15T10:34:49;13.10;99.90
63299;DHT22;54535;52.138;5.398;2022-11-15T10:37:29;13.10;99.90
63299;DHT22;54535;52.138;5.398;2022-11-15T10:40:13;13.20;99.90
63299;DHT22;54535;52.138;5.398;2022-11-15T10:42:41;13.10;99.90
63299;DHT22;54535;52.138;5.398;2022-11-15T10:45:24;13.20;99.90
63299;DHT22;54535;52.138;5.398;2022-11-15T10:47:51;13.20;99.90
63299;DHT22;54535;52.138;5.398;2022-11-15T10:50:31;13.10;99.70
63299;DHT22;54535;52.138;5.398;2022-11-15T10:52:58;13.10;99.60
63299;DHT22;54535;52.138;5.398;2022-11-15T10:55:27;13.10;99.80
63299;DHT22;54535;52.138;5.398;2022-11-15T10:57:56;13.20;99.40
63299;DHT22;54535;52.138;5.398;2022-11-15T11:00:27;13.20;99.60
63299;DHT22;54535;52.138;5.398;2022-11-15T11:02:57;13.20;99.30
63299;DHT22;54535;52.138;5.398;2022-11-15T11:10:57;13.30;99.40
63299;DHT22;54535;52.138;5.398;2022-11-15T11:13:36;13.50;99.50
63299;DHT22;54535;52.138;5.398;2022-11-15T11:16:17;13.60;99.20
63299;DHT22;54535;52.138;5.398;2022-11-15T11:21:17;13.80;99.00
63299;DHT22;54535;52.138;5.398;2022-11-15T11:23:51;13.80;98.30
63299;DHT22;54535;52.138;5.398;2022-11-15T11:29:22;13.80;98.20
63299;DHT22;54535;52.138;5.398;2022-11-15T11:32:01;13.90;98.20
63299;DHT22;54535;52.138;5.398;2022-11-15T11:37:17;14.00;97.80
63299;DHT22;54535;52.138;5.398;2022-11-15T11:47:31;14.10;97.70
63299;DHT22;54535;52.138;5.398;2022-11-15T11:53:46;14.20;97.10
63299;DHT22;54535;52.138;5.398;2022-11-15T11:55:53;14.30;96.90
63299;DHT22;54535;52.138;5.398;2022-11-15T11:58:44;14.60;96.60
63299;DHT22;54535;52.138;5.398;2022-11-15T12:01:25;14.80;96.00
63299;DHT22;54535;52.138;5.398;2022-11-15T12:09:06;15.70;96.10
63299;DHT22;54535;52.138;5.398;2022-11-15T12:11:50;16.20;94.30
63299;DHT22;54535;52.138;5.398;2022-11-15T12:14:29;16.50;91.30
63299;DHT22;54535;52.138;5.398;2022-11-15T12:16:58;16.70;91.00
63299;DHT22;54535;52.138;5.398;2022-11-15T12:19:25;17.30;91.80
63299;DHT22;54535;52.138;5.398;2022-11-15T12:21:59;17.90;92.20
63299;DHT22;54535;52.138;5.398;2022-11-15T12:24:33;18.50;88.50
63299;DHT22;54535;52.138;5.398;2022-11-15T12:27:02;18.40;84.80
63299;DHT22;54535;52.138;5.398;2022-11-15T12:29:38;18.40;82.50
63299;DHT22;54535;52.138;5.398;2022-11-15T12:32:14;18.60;86.30
63299;DHT22;54535;52.138;5.398;2022-11-15T12:34:44;19.00;85.40
63299;DHT22;54535;52.138;5.398;2022-11-15T12:44:57;20.00;71.60
63299;DHT22;54535;52.138;5.398;2022-11-15T12:47:25;20.50;76.80
63299;DHT22;54535;52.138;5.398;2022-11-15T12:49:52;20.50;68.60
63299;DHT22;54535;52.138;5.398;2022-11-15T12:52:19;20.40;71.70
63299;DHT22;54535;52.138;5.398;2022-11-15T12:54:50;20.50;68.80
63299;DHT22;54535;52.138;5.398;2022-11-15T12:57:22;20.90;71.60
63299;DHT22;54535;52.138;5.398;2022-11-15T13:04:50;21.10;64.70
63299;DHT22;54535;52.138;5.398;2022-11-15T13:12:57;21.10;66.60
63299;DHT22;54535;52.138;5.398;2022-11-15T13:15:31;20.80;63.40
63299;DHT22;54535;52.138;5.398;2022-11-15T13:20:51;19.80;65.30
63299;DHT22;54535;52.138;5.398;2022-11-15T13:23:18;19.50;67.50
63299;DHT22;54535;52.138;5.398;2022-11-15T13:33:15;18.50;71.90
63299;DHT22;54535;52.138;5.398;2022-11-15T13:35:45;18.30;72.80
63299;DHT22;54535;52.138;5.398;2022-11-15T13:38:19;18.10;73.80
63299;DHT22;54535;52.138;5.398;2022-11-15T13:40:51;18.00;74.90
63299;DHT22;54535;52.138;5.398;2022-11-15T13:48:34;17.70;76.60
63299;DHT22;54535;52.138;5.398;2022-11-15T13:51:01;17.40;77.00
63299;DHT22;54535;52.138;5.398;2022-11-15T13:53:30;17.30;77.50
63299;DHT22;54535;52.138;5.398;2022-11-15T13:55:57;17.10;78.10
63299;DHT22;54535;52.138;5.398;2022-11-15T13:58:24;17.00;79.00
63299;DHT22;54535;52.138;5.398;2022-11-15T14:00:58;16.80;79.90
63299;DHT22;54535;52.138;5.398;2022-11-15T14:03:26;16.60;80.80
63299;DHT22;54535;52.138;5.398;2022-11-15T14:08:27;16.00;82.70
63299;DHT22;54535;52.138;5.398;2022-11-15T14:11:11;15.90;83.40
63299;DHT22;54535;52.138;5.398;2022-11-15T14:13:39;15.90;84.60
63299;DHT22;54535;52.138;5.398;2022-11-15T14:16:12;15.90;84.60
63299;DHT22;54535;52.138;5.398;2022-11-15T14:18:49;15.80;84.80
63299;DHT22;54535;52.138;5.398;2022-11-15T14:21:16;15.70;85.20
63299;DHT22;54535;52.138;5.398;2022-11-15T14:23:43;15.60;85.30
63299;DHT22;54535;52.138;5.398;2022-11-15T14:26:29;15.70;85.60
63299;DHT22;54535;52.138;5.398;2022-11-15T14:28:57;15.60;86.10
63299;DHT22;54535;52.138;5.398;2022-11-15T14:31:43;15.70;86.50
63299;DHT22;54535;52.138;5.398;2022-11-15T14:34:12;15.70;86.60
63299;DHT22;54535;52.138;5.398;2022-11-15T14:36:39;15.60;86.90
63299;DHT22;54535;52.138;5.398;2022-11-15T14:39:05;15.60;87.20
63299;DHT22;54535;52.138;5.398;2022-11-15T14:41:34;15.60;87.20
63299;DHT22;54535;52.138;5.398;2022-11-15T14:44:04;15.50;87.60
63299;DHT22;54535;52.138;5.398;2022-11-15T14:46:31;15.50;87.60
63299;DHT22;54535;52.138;5.398;2022-11-15T14:48:58;15.30;87.50
63299;DHT22;54535;52.138;5.398;2022-11-15T14:51:24;15.20;88.00
63299;DHT22;54535;52.138;5.398;2022-11-15T14:53:52;15.10;88.40
63299;DHT22;54535;52.138;5.398;2022-11-15T14:56:20;15.10;88.40
63299;DHT22;54535;52.138;5.398;2022-11-15T14:58:47;15.10;89.40
63299;DHT22;54535;52.138;5.398;2022-11-15T15:01:26;15.00;89.00
63299;DHT22;54535;52.138;5.398;2022-11-15T15:03:53;15.00;89.00
63299;DHT22;54535;52.138;5.398;2022-11-15T15:06:23;15.00;89.20
63299;DHT22;54535;52.138;5.398;2022-11-15T15:08:49;15.00;89.30
63299;DHT22;54535;52.138;5.398;2022-11-15T15:13:46;15.00;88.70
63299;DHT22;54535;52.138;5.398;2022-11-15T15:16:13;14.90;89.40
63299;DHT22;54535;52.138;5.398;2022-11-15T15:18:40;14.90;89.30
63299;DHT22;54535;52.138;5.398;2022-11-15T15:21:16;14.90;89.40
63299;DHT22;54535;52.138;5.398;2022-11-15T15:23:43;14.90;89.50
63299;DHT22;54535;52.138;5.398;2022-11-15T15:26:10;14.90;89.50
63299;DHT22;54535;52.138;5.398;2022-11-15T15:28:36;14.90;89.10
63299;DHT22;54535;52.138;5.398;2022-11-15T15:31:05;14.90;89.70
63299;DHT22;54535;52.138;5.398;2022-11-15T15:33:32;14.90;89.70
63299;DHT22;54535;52.138;5.398;2022-11-15T15:35:58;14.90;89.80
63299;DHT22;54535;52.138;5.398;2022-11-15T15:38:25;14.80;89.70
63299;DHT22;54535;52.138;5.398;2022-11-15T15:40:52;14.80;89.70
63299;DHT22;54535;52.138;5.398;2022-11-15T15:43:19;14.80;89.80
63299;DHT22;54535;52.138;5.398;2022-11-15T15:45:46;14.80;89.30
63299;DHT22;54535;52.138;5.398;2022-11-15T15:48:13;14.80;89.50
63299;DHT22;54535;52.138;5.398;2022-11-15T15:50:40;14.70;89.20
63299;DHT22;54535;52.138;5.398;2022-11-15T15:53:09;14.70;89.50
63299;DHT22;54535;52.138;5.398;2022-11-15T15:55:39;14.70;89.40
63299;DHT22;54535;52.138;5.398;2022-11-15T15:58:06;14.70;89.40
63299;DHT22;54535;52.138;5.398;2022-11-15T16:00:34;14.60;89.30
63299;DHT22;54535;52.138;5.398;2022-11-15T16:03:01;14.70;89.60
63299;DHT22;54535;52.138;5.398;2022-11-15T16:05:28;14.60;89.50
63299;DHT22;54535;52.138;5.398;2022-11-15T16:07:54;14.60;89.70
63299;DHT22;54535;52.138;5.398;2022-11-15T16:12:48;14.60;89.90
63299;DHT22;54535;52.138;5.398;2022-11-15T16:15:15;14.60;89.80
63299;DHT22;54535;52.138;5.398;2022-11-15T16:17:44;14.50;89.10
63299;DHT22;54535;52.138;5.398;2022-11-15T16:20:19;14.40;89.50
63299;DHT22;54535;52.138;5.398;2022-11-15T16:22:48;14.40;90.00
63299;DHT22;54535;52.138;5.398;2022-11-15T16:25:14;14.40;90.10
63299;DHT22;54535;52.138;5.398;2022-11-15T16:27:41;14.40;90.20
63299;DHT22;54535;52.138;5.398;2022-11-15T16:30:14;14.40;90.10
63299;DHT22;54535;52.138;5.398;2022-11-15T16:32:41;14.40;90.20
63299;DHT22;54535;52.138;5.398;2022-11-15T16:35:12;14.30;90.40
63299;DHT22;54535;52.138;5.398;2022-11-15T16:37:39;14.30;90.40
63299;DHT22;54535;52.138;5.398;2022-11-15T16:40:29;14.40;90.50
63299;DHT22;54535;52.138;5.398;2022-11-15T16:42:53;14.40;90.60
63299;DHT22;54535;52.138;5.398;2022-11-15T16:45:22;14.50;90.50
63299;DHT22;54535;52.138;5.398;2022-11-15T16:47:49;14.40;90.50
63299;DHT22;54535;52.138;5.398;2022-11-15T16:50:20;14.40;90.60
63299;DHT22;54535;52.138;5.398;2022-11-15T16:52:53;14.30;90.90
63299;DHT22;54535;52.138;5.398;2022-11-15T16:55:21;14.20;90.90
63299;DHT22;54535;52.138;5.398;2022-11-15T16:57:48;14.20;91.10
63299;DHT22;54535;52.138;5.398;2022-11-15T17:00:15;14.30;91.50
63299;DHT22;54535;52.138;5.398;2022-11-15T17:02:42;14.10;91.90
63299;DHT22;54535;52.138;5.398;2022-11-15T17:05:10;14.10;92.00
63299;DHT22;54535;52.138;5.398;2022-11-15T17:07:45;14.20;92.20
63299;DHT22;54535;52.138;5.398;2022-11-15T17:10:14;14.20;92.50
63299;DHT22;54535;52.138;5.398;2022-11-15T17:12:41;14.20;92.70
63299;DHT22;54535;52.138;5.398;2022-11-15T17:15:08;14.20;93.00
63299;DHT22;54535;52.138;5.398;2022-11-15T17:17:36;14.00;93.10
63299;DHT22;54535;52.138;5.398;2022-11-15T17:20:03;14.10;93.50
63299;DHT22;54535;52.138;5.398;2022-11-15T17:22:35;14.10;93.50
63299;DHT22;54535;52.138;5.398;2022-11-15T17:25:03;14.10;94.20
63299;DHT22;54535;52.138;5.398;2022-11-15T17:27:30;14.10;94.90
63299;DHT22;54535;52.138;5.398;2022-11-15T17:29:56;14.00;95.00
63299;DHT22;54535;52.138;5.398;2022-11-15T17:32:23;14.00;95.70
63299;DHT22;54535;52.138;5.398;2022-11-15T17:34:50;14.00;96.00
63299;DHT22;54535;52.138;5.398;2022-11-15T17:37:16;14.00;95.90
63299;DHT22;54535;52.138;5.398;2022-11-15T17:39:43;13.90;96.40
63299;DHT22;54535;52.138;5.398;2022-11-15T17:42:09;13.80;96.70
63299;DHT22;54535;52.138;5.398;2022-11-15T17:44:36;13.80;97.00
63299;DHT22;54535;52.138;5.398;2022-11-15T17:47:03;13.70;97.30
63299;DHT22;54535;52.138;5.398;2022-11-15T17:49:29;13.70;97.80
63299;DHT22;54535;52.138;5.398;2022-11-15T17:51:56;13.60;98.00
63299;DHT22;54535;52.138;5.398;2022-11-15T17:54:23;13.60;98.00
63299;DHT22;54535;52.138;5.398;2022-11-15T17:56:49;13.60;97.70
63299;DHT22;54535;52.138;5.398;2022-11-15T17:59:16;13.60;98.90
63299;DHT22;54535;52.138;5.398;2022-11-15T18:01:47;13.50;99.50
63299;DHT22;54535;52.138;5.398;2022-11-15T18:04:14;13.40;99.60
63299;DHT22;54535;52.138;5.398;2022-11-15T18:06:40;13.40;99.90
63299;DHT22;54535;52.138;5.398;2022-11-15T18:09:07;13.40;99.90
63299;DHT22;54535;52.138;5.398;2022-11-15T18:11:35;13.40;99.90
63299;DHT22;54535;52.138;5.398;2022-11-15T18:14:05;13.40;99.80
63299;DHT22;54535;52.138;5.398;2022-11-15T18:16:33;13.30;99.90
63299;DHT22;54535;52.138;5.398;2022-11-15T18:19:00;13.30;99.90
63299;DHT22;54535;52.138;5.398;2022-11-15T18:21:27;13.40;99.70
63299;DHT22;54535;52.138;5.398;2022-11-15T18:23:55;13.40;99.90
63299;DHT22;54535;52.138;5.398;2022-11-15T18:26:22;13.30;99.90
63299;DHT22;54535;52.138;5.398;2022-11-15T18:28:54;13.30;99.90
63299;DHT22;54535;52.138;5.398;2022-11-15T18:31:25;13.30;99.90